createdAt,value
2019-05-16T00:01:19.273Z,57.54
2019-05-16T00:03:52.003Z,59.57
2019-05-16T00:06:25.459Z,61.32
2019-05-16T00:08:58.935Z,63.00
2019-05-16T00:11:32.362Z,61.87
2019-05-16T00:14:08.189Z,52.11
2019-05-16T00:16:41.141Z,50.40
2019-05-16T00:19:14.574Z,53.59
2019-05-16T00:21:48.804Z,56.60
2019-05-16T00:24:22.344Z,58.78
2019-05-16T00:26:57.929Z,60.60
2019-05-16T00:29:30.794Z,62.01
2019-05-16T00:32:04.257Z,61.36
2019-05-16T00:34:38.470Z,52.12
2019-05-16T00:37:11.983Z,52.21
2019-05-16T00:39:45.485Z,55.67
2019-05-16T00:42:18.947Z,58.18
2019-05-16T00:44:52.418Z,60.19
2019-05-16T00:47:28.249Z,61.99
2019-05-16T00:50:01.059Z,61.45
2019-05-16T00:52:34.509Z,52.99
2019-05-16T00:55:08.486Z,51.22
2019-05-16T00:57:42.678Z,54.39
2019-05-16T01:00:18.155Z,57.20
2019-05-16T01:02:51.639Z,59.22
2019-05-16T01:05:25.091Z,61.25
2019-05-16T01:07:58.530Z,62.93
2019-05-16T01:10:32.098Z,62.05
2019-05-16T01:13:07.862Z,53.33
2019-05-16T01:15:41.648Z,53.55
2019-05-16T01:18:15.105Z,56.52
2019-05-16T01:20:48.553Z,59.21
2019-05-16T01:23:22.994Z,61.21
2019-05-16T01:25:58.891Z,62.97
2019-05-16T01:28:32.531Z,62.36
2019-05-16T01:31:08.404Z,53.79
2019-05-16T01:33:41.376Z,52.15
2019-05-16T01:36:14.835Z,55.19
2019-05-16T01:38:48.577Z,57.99
2019-05-16T01:41:23.049Z,60.41
2019-05-16T01:43:58.382Z,62.02
2019-05-16T01:46:31.607Z,61.66
2019-05-16T01:49:05.047Z,53.19
2019-05-16T01:51:38.508Z,51.35
2019-05-16T01:54:11.866Z,54.52
2019-05-16T01:56:45.287Z,57.33
2019-05-16T01:59:18.772Z,59.58
2019-05-16T02:01:52.221Z,61.22
2019-05-16T02:04:25.684Z,62.89
2019-05-16T02:06:59.142Z,62.30
2019-05-16T02:09:32.550Z,53.08
2019-05-16T02:12:08.198Z,51.47
2019-05-16T02:14:41.191Z,54.45
2019-05-16T02:17:14.850Z,57.27
2019-05-16T02:19:48.630Z,59.53
2019-05-16T02:22:22.061Z,61.07
2019-05-16T02:24:55.504Z,62.92
2019-05-16T02:27:28.968Z,61.95
2019-05-16T02:30:02.415Z,52.82
2019-05-16T02:32:35.888Z,51.12
2019-05-16T02:35:11.730Z,54.21
2019-05-16T02:37:44.779Z,57.04
2019-05-16T02:40:24.066Z,59.21
2019-05-16T02:43:01.551Z,61.06
2019-05-16T02:45:33.521Z,62.69
2019-05-16T02:48:07.021Z,61.67
2019-05-16T02:50:41.484Z,52.71
2019-05-16T02:53:15.025Z,51.11
2019-05-16T02:55:51.521Z,54.21
2019-05-16T02:58:24.861Z,57.00
2019-05-16T03:01:01.476Z,59.14
2019-05-16T03:03:33.885Z,60.87
2019-05-16T03:06:10.919Z,62.44
2019-05-16T03:08:42.970Z,61.27
2019-05-16T03:11:20.771Z,52.31
2019-05-16T03:13:55.268Z,50.70
2019-05-16T03:16:31.782Z,53.93
2019-05-16T03:19:05.980Z,56.63
2019-05-16T03:21:43.405Z,58.89
2019-05-16T03:24:16.850Z,60.71
2019-05-16T03:26:51.525Z,62.36
2019-05-16T03:29:25.063Z,61.69
2019-05-16T03:32:02.889Z,53.19
2019-05-16T03:34:34.704Z,51.55
2019-05-16T03:37:13.560Z,54.57
2019-05-16T03:39:43.395Z,57.29
2019-05-16T03:42:20.230Z,59.40
2019-05-16T03:44:52.161Z,61.20
2019-05-16T03:47:25.599Z,62.62
2019-05-16T03:50:00.614Z,61.65
2019-05-16T03:52:38.871Z,53.03
2019-05-16T03:55:11.274Z,51.36
2019-05-16T03:57:45.033Z,54.44
2019-05-16T04:00:22.046Z,57.18
2019-05-16T04:02:55.484Z,59.34
2019-05-16T04:05:31.679Z,61.04
2019-05-16T04:08:18.478Z,62.62
2019-05-16T04:10:40.948Z,60.98
2019-05-16T04:13:14.245Z,51.97
2019-05-16T04:15:51.758Z,51.00
2019-05-16T04:18:23.776Z,54.16
2019-05-16T04:20:57.216Z,56.82
2019-05-16T04:23:31.496Z,58.95
2019-05-16T04:26:05.149Z,60.79
2019-05-16T04:28:41.360Z,62.24
2019-05-16T04:31:13.760Z,60.94
2019-05-16T04:33:47.086Z,52.31
2019-05-16T04:36:21.536Z,51.67
2019-05-16T04:38:54.953Z,54.79
2019-05-16T04:41:31.138Z,57.38
2019-05-16T04:44:04.958Z,59.64
2019-05-16T04:46:41.064Z,61.28
2019-05-16T04:49:13.643Z,62.84
2019-05-16T04:51:47.086Z,61.39
2019-05-16T04:54:21.549Z,52.69
2019-05-16T04:56:55.116Z,51.24
2019-05-16T04:59:31.122Z,54.29
2019-05-16T05:02:03.602Z,57.10
2019-05-16T05:04:37.076Z,59.37
2019-05-16T05:07:11.149Z,60.93
2019-05-16T05:09:44.664Z,62.40
2019-05-16T05:12:20.556Z,61.09
2019-05-16T05:14:53.119Z,52.28
2019-05-16T05:17:26.358Z,51.09
2019-05-16T05:20:01.122Z,54.16
2019-05-16T05:22:35.602Z,56.90
2019-05-16T05:25:11.103Z,59.04
2019-05-16T05:27:50.174Z,60.81
2019-05-16T05:30:23.931Z,62.28
2019-05-16T05:32:57.211Z,61.08
2019-05-16T05:35:31.084Z,52.26
2019-05-16T05:38:04.625Z,51.49
2019-05-16T05:40:40.290Z,54.49
2019-05-16T05:43:13.123Z,57.20
2019-05-16T05:45:46.569Z,59.30
2019-05-16T05:48:21.627Z,61.00
2019-05-16T05:50:55.084Z,62.40
2019-05-16T05:53:30.017Z,60.97
2019-05-16T05:56:03.638Z,52.26
2019-05-16T05:58:37.062Z,52.12
2019-05-16T06:01:11.145Z,55.07
2019-05-16T06:03:44.821Z,57.66
2019-05-16T06:06:20.803Z,59.75
2019-05-16T06:08:53.355Z,61.45
2019-05-16T06:11:26.757Z,63.11
2019-05-16T06:14:01.212Z,61.58
2019-05-16T06:16:34.625Z,52.95
2019-05-16T06:19:10.651Z,51.67
2019-05-16T06:21:45.310Z,54.68
2019-05-16T06:24:20.080Z,57.64
2019-05-16T06:26:53.183Z,59.84
2019-05-16T06:29:26.815Z,61.72
2019-05-16T06:32:00.348Z,63.21
2019-05-16T06:34:33.700Z,61.78
2019-05-16T06:37:07.131Z,53.24
2019-05-16T06:39:44.681Z,51.71
2019-05-16T06:42:15.588Z,55.00
2019-05-16T06:44:50.382Z,57.86
2019-05-16T06:47:24.500Z,60.25
2019-05-16T06:50:00.270Z,62.55
2019-05-16T06:52:33.901Z,60.81
2019-05-16T06:55:10.115Z,51.53
2019-05-16T06:57:43.761Z,52.01
2019-05-16T07:00:20.731Z,55.30
2019-05-16T07:02:53.210Z,58.05
2019-05-16T07:05:26.659Z,60.25
2019-05-16T07:08:00.524Z,62.02
2019-05-16T07:10:34.168Z,63.56
2019-05-16T07:13:07.654Z,61.50
2019-05-16T07:15:41.067Z,52.08
2019-05-16T07:18:14.527Z,50.46
2019-05-16T07:20:47.999Z,54.19
2019-05-16T07:23:21.522Z,57.07
2019-05-16T07:25:54.945Z,59.63
2019-05-16T07:28:30.017Z,61.46
2019-05-16T07:31:14.887Z,63.07
2019-05-16T07:33:40.685Z,60.63
2019-05-16T07:36:15.947Z,51.61
2019-05-16T07:38:50.705Z,50.42
2019-05-16T07:41:24.291Z,53.68
2019-05-16T07:43:57.765Z,56.89
2019-05-16T07:46:31.680Z,59.33
2019-05-16T07:49:06.201Z,61.38
2019-05-16T07:51:40.230Z,63.11
2019-05-16T07:54:13.781Z,61.14
2019-05-16T07:56:47.262Z,51.49
2019-05-16T07:59:20.808Z,51.23
2019-05-16T08:01:54.427Z,54.89
2019-05-16T08:04:30.217Z,57.26
2019-05-16T08:07:05.856Z,59.10
2019-05-16T08:09:39.729Z,61.02
2019-05-16T08:12:13.313Z,62.59
2019-05-16T08:14:46.799Z,60.96
2019-05-16T08:17:21.832Z,50.87
2019-05-16T08:19:56.275Z,51.09
2019-05-16T08:22:30.623Z,54.63
2019-05-16T08:25:04.387Z,56.62
2019-05-16T08:27:40.954Z,59.89
2019-05-16T08:30:13.068Z,60.98
2019-05-16T08:32:46.518Z,62.47
2019-05-16T08:35:21.183Z,60.29
2019-05-16T08:37:54.709Z,50.71
2019-05-16T08:40:31.332Z,49.43
2019-05-16T08:43:03.246Z,53.03
2019-05-16T08:45:36.861Z,55.68
2019-05-16T08:48:11.547Z,57.89
2019-05-16T08:53:21.832Z,61.67
2019-05-16T08:55:55.393Z,63.04
2019-05-16T08:58:33.078Z,60.85
2019-05-16T09:01:03.943Z,51.82
2019-05-16T09:03:40.719Z,50.11
2019-05-16T09:06:12.466Z,53.45
2019-05-16T09:08:45.894Z,56.09
2019-05-16T09:10:21.439Z,60.04
2019-05-16T09:11:33.803Z,58.37
2019-05-16T09:13:57.128Z,60.13
2019-05-16T09:16:29.539Z,61.85
2019-05-16T09:19:02.878Z,63.40
2019-05-16T09:21:38.344Z,59.84
2019-05-16T09:24:11.521Z,54.95
2019-05-16T09:26:47.378Z,57.29
2019-05-16T09:29:20.037Z,59.86
2019-05-16T09:32:07.875Z,61.81
2019-05-16T09:34:28.589Z,63.14
2019-05-16T09:37:02.267Z,61.16
2019-05-16T09:39:37.081Z,51.83
2019-05-16T09:42:10.458Z,50.53
2019-05-16T09:44:43.884Z,53.71
2019-05-16T09:47:17.760Z,56.54
2019-05-16T09:49:52.831Z,58.65
2019-05-16T09:52:27.384Z,60.52
2019-05-16T09:55:00.813Z,61.98
2019-05-16T09:57:37.831Z,60.55
2019-05-16T10:00:18.073Z,51.26
2019-05-16T10:02:51.508Z,50.55
2019-05-16T10:05:26.638Z,53.91
2019-05-16T10:08:01.290Z,56.87
2019-05-16T10:10:36.809Z,59.02
2019-05-16T10:13:09.601Z,60.86
2019-05-16T10:15:42.980Z,62.24
2019-05-16T10:18:16.855Z,60.45
2019-05-16T10:20:50.374Z,51.04
2019-05-16T10:23:23.735Z,50.55
2019-05-16T10:25:57.137Z,53.58
2019-05-16T10:28:30.514Z,56.53
2019-05-16T10:31:04.008Z,58.90
2019-05-16T10:33:39.281Z,60.61
2019-05-16T10:36:12.707Z,62.34
2019-05-16T10:38:48.417Z,60.01
2019-05-16T10:41:21.482Z,54.81
2019-05-16T10:43:56.694Z,57.30
2019-05-16T10:46:29.829Z,60.06
2019-05-16T10:49:03.215Z,61.66
2019-05-16T10:51:37.711Z,62.91
2019-05-16T10:54:14.323Z,61.47
2019-05-16T10:56:46.759Z,51.71
2019-05-16T10:59:54.673Z,50.79
2019-05-16T11:01:59.893Z,54.35
2019-05-16T11:04:49.572Z,57.22
2019-05-16T11:07:09.235Z,59.95
2019-05-16T11:09:54.819Z,61.34
2019-05-16T11:12:20.532Z,62.92
2019-05-16T11:14:52.548Z,60.29
2019-05-16T11:17:27.864Z,53.62
2019-05-16T11:20:00.809Z,55.61
2019-05-16T11:22:36.761Z,58.55
2019-05-16T11:25:21.219Z,60.69
2019-05-16T11:27:46.706Z,62.41
2019-05-16T11:30:19.894Z,60.17
2019-05-16T11:32:53.234Z,51.78
2019-05-16T11:35:27.301Z,52.94
2019-05-16T11:38:01.495Z,55.95
2019-05-16T11:40:35.080Z,58.22
2019-05-16T11:43:15.921Z,60.19
2019-05-16T11:45:46.703Z,62.00
2019-05-16T11:48:19.548Z,63.85
2019-05-16T11:50:52.940Z,60.87
2019-05-16T11:53:28.219Z,52.43
2019-05-16T11:56:02.234Z,52.05
2019-05-16T11:58:37.055Z,55.59
2019-05-16T12:01:10.548Z,58.27
2019-05-16T12:03:46.638Z,59.11
2019-05-16T12:06:20.511Z,61.58
2019-05-16T12:08:53.886Z,62.52
2019-05-16T12:11:27.744Z,59.80
2019-05-16T12:14:01.653Z,54.32
2019-05-16T12:16:37.796Z,56.37
2019-05-16T12:19:10.866Z,58.69
2019-05-16T12:21:44.509Z,60.19
2019-05-16T12:24:31.684Z,61.80
2019-05-16T12:26:54.035Z,63.13
2019-05-16T12:29:28.178Z,59.82
2019-05-16T12:32:03.224Z,54.70
2019-05-16T12:34:38.638Z,56.23
2019-05-16T12:37:16.122Z,58.46
2019-05-16T12:39:51.996Z,59.88
2019-05-16T12:42:27.081Z,61.77
2019-05-16T12:45:02.676Z,62.95
2019-05-16T12:47:38.684Z,60.32
2019-05-16T12:50:13.978Z,51.85
2019-05-16T12:52:49.217Z,49.80
2019-05-16T12:55:23.172Z,52.91
2019-05-16T12:58:11.835Z,55.53
2019-05-16T13:00:32.746Z,57.39
2019-05-16T13:03:07.151Z,58.89
2019-05-16T13:05:40.562Z,60.44
2019-05-16T13:08:17.236Z,62.27
2019-05-16T13:10:49.613Z,59.82
2019-05-16T13:13:23.698Z,55.06
2019-05-16T13:15:56.895Z,56.00
2019-05-16T13:18:30.144Z,58.17
2019-05-16T13:21:03.442Z,60.28
2019-05-16T13:23:36.499Z,61.31
2019-05-16T13:26:09.811Z,62.61
2019-05-16T13:28:42.979Z,60.58
2019-05-16T13:31:17.588Z,51.75
2019-05-16T13:33:56.833Z,48.79
2019-05-16T13:36:29.510Z,52.35
2019-05-16T13:39:07.813Z,53.61
2019-05-16T13:41:39.464Z,55.95
2019-05-16T13:44:18.550Z,57.76
2019-05-16T13:46:47.366Z,59.58
2019-05-16T13:49:20.525Z,60.45
2019-05-16T13:51:53.666Z,61.94
2019-05-16T13:54:27.024Z,62.71
2019-05-16T13:57:00.178Z,60.42
2019-05-16T13:59:33.428Z,51.29
2019-05-16T14:02:07.961Z,49.80
2019-05-16T14:04:41.372Z,52.43
2019-05-16T14:07:17.167Z,55.06
2019-05-16T14:09:50.009Z,56.93
2019-05-16T14:12:27.353Z,58.29
2019-05-16T14:15:00.614Z,59.49
2019-05-16T14:17:36.751Z,60.89
2019-05-16T14:20:14.447Z,61.93
2019-05-16T14:22:44.136Z,63.05
2019-05-16T14:25:18.761Z,59.83
2019-05-16T14:27:52.117Z,54.29
2019-05-16T14:30:28.299Z,56.17
2019-05-16T14:33:02.113Z,58.40
2019-05-16T14:35:37.695Z,59.07
2019-05-16T14:38:10.533Z,60.25
2019-05-16T14:40:47.588Z,61.72
2019-05-16T14:43:19.056Z,63.07
2019-05-16T14:45:57.214Z,60.25
2019-05-16T14:48:30.655Z,51.69
2019-05-16T14:51:05.010Z,49.14
2019-05-16T14:53:38.359Z,52.43
2019-05-16T14:56:11.557Z,54.33
2019-05-16T14:58:48.186Z,56.12
2019-05-16T15:01:19.834Z,57.63
2019-05-16T15:03:53.077Z,58.78
2019-05-16T15:06:27.638Z,60.24
2019-05-16T15:09:00.937Z,60.65
2019-05-16T15:11:35.737Z,61.55
2019-05-16T15:14:09.055Z,62.70
2019-05-16T15:16:42.326Z,60.58
2019-05-16T15:19:17.495Z,50.41
2019-05-16T15:21:50.620Z,50.46
2019-05-16T15:24:23.838Z,52.58
2019-05-16T15:27:01.169Z,54.56
2019-05-16T15:29:31.906Z,56.49
2019-05-16T15:32:07.006Z,58.04
2019-05-16T15:34:41.342Z,59.43
2019-05-16T15:37:16.985Z,60.13
2019-05-16T15:39:49.593Z,60.41
2019-05-16T15:42:22.869Z,61.60
2019-05-16T15:44:56.209Z,62.59
2019-05-16T15:47:30.738Z,59.93
2019-05-16T15:50:04.220Z,54.07
2019-05-16T15:52:39.302Z,55.52
2019-05-16T15:55:12.891Z,57.54
2019-05-16T15:57:47.510Z,58.99
2019-05-16T16:01:01.641Z,59.93
2019-05-16T16:03:37.950Z,61.28
2019-05-16T16:06:09.959Z,62.32
2019-05-16T16:08:43.292Z,59.67
2019-05-16T16:11:17.294Z,54.18
2019-05-16T16:13:50.717Z,55.91
2019-05-16T16:16:26.757Z,57.90
2019-05-16T16:19:00.211Z,59.60
2019-05-16T16:21:33.486Z,61.06
2019-05-16T16:24:09.126Z,62.11
2019-05-16T16:26:41.956Z,63.00
2019-05-16T16:29:16.910Z,60.29
2019-05-16T16:31:50.534Z,51.10
2019-05-16T16:34:23.840Z,49.48
2019-05-16T16:36:58.595Z,52.33
2019-05-16T16:39:32.283Z,54.35
2019-05-16T16:42:07.619Z,56.33
2019-05-16T16:44:43.613Z,57.69
2019-05-16T16:47:17.618Z,58.92
2019-05-16T16:49:51.750Z,60.18
2019-05-16T16:52:27.229Z,61.50
2019-05-16T16:55:00.782Z,62.23
2019-05-16T16:57:38.291Z,63.38
2019-05-16T17:00:13.596Z,59.50
2019-05-16T17:03:02.103Z,54.42
2019-05-16T17:05:26.529Z,56.51
2019-05-16T17:07:59.767Z,58.55
2019-05-16T17:10:33.065Z,59.91
2019-05-16T17:13:07.409Z,61.25
2019-05-16T17:16:18.003Z,62.27
2019-05-16T17:18:32.019Z,58.34
2019-05-16T17:21:07.814Z,53.21
2019-05-16T17:23:42.314Z,55.36
2019-05-16T17:26:15.737Z,57.39
2019-05-16T17:28:48.978Z,58.89
2019-05-16T17:31:22.343Z,60.33
2019-05-16T17:33:57.726Z,61.34
2019-05-16T17:36:37.221Z,62.29
2019-05-16T17:39:18.325Z,60.07
2019-05-16T17:45:01.388Z,56.45
2019-05-16T17:47:37.074Z,58.29
2019-05-16T17:50:11.012Z,59.64
2019-05-16T17:52:52.107Z,60.61
2019-05-16T17:55:30.852Z,61.97
2019-05-16T17:58:35.095Z,63.01
